Time;durP1;ratioP1;P1;durP2;ratioP2;P2;SDS_P1;SDS_P2;PMS_P1;PMS_P2;Temp;Humidity;BMP_temperature;BMP_pressure;BME280_temperature;BME280_humidity;BME280_pressure;Samples;Min_cycle;Max_cycle;Signal;HPM_P1;HPM_P2
2022/11/27 00:00:57;;;;;;;63.03;18.60;;;;;;;5.80;74.09;102323.16;6183602;23;20025;-71
2022/11/27 00:03:24;;;;;;;61.97;18.92;;;;;;;6.09;73.43;102318.78;6178032;23;20054;-72
2022/11/27 00:05:55;;;;;;;38.83;17.10;;;;;;;6.16;72.61;102318.31;6178168;23;20029;-71
2022/11/27 00:08:23;;;;;;;56.83;18.55;;;;;;;6.18;72.45;102312.88;6177316;23;20022;-71
2022/11/27 00:10:50;;;;;;;43.97;17.85;;;;;;;6.20;72.68;102314.53;6176992;23;20040;-71
2022/11/27 00:13:17;;;;;;;43.10;17.83;;;;;;;6.18;72.48;102310.22;6178082;23;20032;-70
2022/11/27 00:15:43;;;;;;;50.55;19.10;;;;;;;6.20;72.33;102303.88;6178152;23;20036;-73
2022/11/27 00:18:10;;;;;;;57.70;18.45;;;;;;;6.17;72.47;102300.53;6177361;23;20021;-72
2022/11/27 00:20:37;;;;;;;58.28;19.75;;;;;;;6.29;72.39;102306.94;6177976;23;20032;-73
2022/11/27 00:23:04;;;;;;;49.88;21.65;;;;;;;6.14;72.51;102308.69;6177598;23;20013;-73
2022/11/27 00:25:30;;;;;;;63.67;22.33;;;;;;;5.86;73.64;102307.69;6178553;23;20002;-75
2022/11/27 00:27:57;;;;;;;58.20;21.63;;;;;;;5.83;73.69;102315.00;6178306;23;20001;-72
2022/11/27 00:30:23;;;;;;;55.33;20.73;;;;;;;6.03;73.34;102314.69;6175198;23;20069;-71
2022/11/27 00:32:50;;;;;;;52.60;20.45;;;;;;;6.03;73.25;102312.00;6177575;23;20013;-70
2022/11/27 00:35:16;;;;;;;51.90;19.70;;;;;;;6.23;72.64;102310.81;6177663;23;20077;-72
2022/11/27 00:37:43;;;;;;;62.30;21.33;;;;;;;5.96;73.34;102308.00;6178117;23;20005;-73
2022/11/27 00:40:09;;;;;;;58.72;19.45;;;;;;;6.03;72.93;102317.34;6177971;23;20017;-72
2022/11/27 00:42:36;;;;;;;51.00;19.48;;;;;;;6.00;73.37;102318.38;6177403;23;20017;-74
2022/11/27 00:45:03;;;;;;;50.30;18.65;;;;;;;5.67;74.15;102318.56;6177093;23;20085;-72
2022/11/27 00:47:29;;;;;;;58.28;19.23;;;;;;;5.73;73.58;102309.34;6178170;23;20006;-73
2022/11/27 00:49:56;;;;;;;57.55;18.15;;;;;;;5.69;73.85;102308.66;6201754;23;20073;-72
2022/11/27 00:52:22;;;;;;;57.38;18.25;;;;;;;5.91;73.02;102305.63;6207587;23;20052;-71
2022/11/27 00:54:49;;;;;;;38.38;17.17;;;;;;;5.83;73.16;102307.00;6208918;23;20040;-72
2022/11/27 00:57:16;;;;;;;47.60;17.35;;;;;;;6.09;72.38;102300.16;6208894;23;20024;-72
2022/11/27 00:59:42;;;;;;;53.10;18.33;;;;;;;6.04;72.53;102305.72;6208751;23;20032;-74
2022/11/27 01:02:08;;;;;;;49.45;17.35;;;;;;;5.85;72.80;102299.78;6208400;23;20073;-73
2022/11/27 01:04:35;;;;;;;50.97;17.50;;;;;;;5.71;73.25;102298.81;6208472;23;20009;-75
2022/11/27 01:07:01;;;;;;;42.05;17.63;;;;;;;5.80;73.21;102299.19;6209787;23;20028;-75
2022/11/27 01:09:28;;;;;;;54.20;16.60;;;;;;;5.70;73.42;102293.56;6210309;23;20029;-70
2022/11/27 01:11:54;;;;;;;47.03;16.88;;;;;;;5.85;73.00;102297.13;6209425;23;20076;-71
2022/11/27 01:14:21;;;;;;;49.72;17.67;;;;;;;6.15;72.07;102289.13;6209847;23;20009;-72
2022/11/27 01:16:48;;;;;;;48.88;17.38;;;;;;;6.10;71.48;102283.19;6209093;23;20032;-71
2022/11/27 01:19:14;;;;;;;47.20;17.02;;;;;;;6.13;72.00;102275.88;6209886;23;20019;-71
2022/11/27 01:21:41;;;;;;;41.28;16.50;;;;;;;6.03;71.95;102277.38;6208444;23;20069;-71
2022/11/27 01:24:10;;;;;;;43.50;15.93;;;;;;;5.92;72.44;102285.16;6208750;23;20057;-72
2022/11/27 01:26:37;;;;;;;42.65;16.67;;;;;;;5.81;72.89;102274.31;6209054;23;20044;-74
2022/11/27 01:29:04;;;;;;;52.00;16.40;;;;;;;5.84;72.39;102274.97;6209117;23;20061;-73
2022/11/27 01:31:33;;;;;;;44.30;16.83;;;;;;;5.76;72.60;102278.06;6210687;23;20021;-72
2022/11/27 01:34:05;;;;;;;43.47;16.27;;;;;;;5.79;73.13;102281.50;6175610;23;20021;-72
2022/11/27 01:36:32;;;;;;;53.40;16.25;;;;;;;5.93;72.56;102268.22;6180355;23;20010;-71
2022/11/27 01:38:59;;;;;;;45.60;15.63;;;;;;;5.94;72.51;102269.94;6179198;23;20021;-71
2022/11/27 01:41:29;;;;;;;51.53;17.83;;;;;;;6.17;71.63;102268.56;6180111;23;20021;-72
2022/11/27 01:44:23;;;;;;;42.80;17.15;;;;;;;5.89;71.92;102256.03;6179097;23;20036;-71
2022/11/27 01:47:00;;;;;;;41.03;16.23;;;;;;;5.71;72.97;102255.34;6179190;23;20020;-73
2022/11/27 01:49:31;;;;;;;47.72;16.38;;;;;;;5.98;71.83;102253.69;6178153;23;20061;-71
2022/11/27 01:52:19;;;;;;;43.78;16.27;;;;;;;5.88;72.02;102246.34;6197491;23;20013;-71
2022/11/27 01:54:54;;;;;;;36.90;15.35;;;;;;;5.99;71.78;102243.88;6199891;23;20065;-72
2022/11/27 01:57:27;;;;;;;43.30;15.93;;;;;;;5.94;71.50;102243.28;6208804;23;20027;-71
2022/11/27 01:59:56;;;;;;;41.60;15.20;;;;;;;5.75;72.30;102239.06;6209131;23;20027;-73
2022/11/27 02:02:23;;;;;;;50.65;17.38;;;;;;;6.00;71.57;102234.94;6208470;23;20009;-72
2022/11/27 02:04:51;;;;;;;33.42;15.75;;;;;;;5.83;72.45;102227.97;6209821;23;20037;-72
2022/11/27 02:07:18;;;;;;;40.15;16.88;;;;;;;5.85;71.78;102230.56;6208410;23;20024;-71
2022/11/27 02:09:45;;;;;;;36.83;16.67;;;;;;;5.89;71.82;102221.41;6208985;23;20009;-73
2022/11/27 02:12:14;;;;;;;49.33;15.90;;;;;;;5.79;71.59;102229.09;6208122;23;20069;-73
2022/11/27 02:14:52;;;;;;;40.53;15.73;;;;;;;5.34;74.21;102224.69;6208752;23;20020;-73
2022/11/27 02:17:24;;;;;;;44.97;15.77;;;;;;;5.51;73.09;102229.88;6209523;23;20081;-72
2022/11/27 02:20:26;;;;;;;48.50;17.20;;;;;;;5.82;72.40;102225.41;6208679;23;20016;-72
2022/11/27 02:23:12;;;;;;;50.60;17.73;;;;;;;5.83;72.36;102229.78;6206927;23;20061;-72
2022/11/27 02:25:57;;;;;;;44.50;16.55;;;;;;;5.78;72.27;102230.06;6198445;23;20025;-74
2022/11/27 02:28:48;;;;;;;37.38;15.32;;;;;;;5.91;72.26;102230.19;6195794;23;20061;-71
2022/11/27 02:31:21;;;;;;;45.67;16.13;;;;;;;5.61;72.79;102239.03;6177946;23;20069;-73
2022/11/27 02:33:53;;;;;;;46.28;16.83;;;;;;;5.68;72.67;102235.06;6178099;23;20057;-72
2022/11/27 02:36:25;;;;;;;;;;;;;;;5.73;72.57;102233.00;6179524;23;20050;-72
2022/11/27 02:39:06;;;;;;;39.35;16.00;;;;;;;5.67;72.64;102235.19;6179124;23;19917;-72
2022/11/27 02:41:43;;;;;;;36.47;12.73;;;;;;;5.53;73.04;102246.63;6184743;23;20061;-71
2022/11/27 02:44:10;;;;;;;45.88;16.65;;;;;;;5.39;73.44;102241.28;6184823;23;20069;-73
2022/11/27 02:46:39;;;;;;;52.10;16.90;;;;;;;5.23;73.94;102236.81;6178214;23;20056;-73
2022/11/27 02:49:12;;;;;;;46.40;16.02;;;;;;;5.17;73.91;102237.16;6178790;23;20036;-73
2022/11/27 02:51:46;;;;;;;45.92;16.90;;;;;;;5.05;74.28;102235.22;6178100;23;20061;-74
2022/11/27 02:54:20;;;;;;;39.63;16.85;;;;;;;4.87;74.61;102233.56;6178748;23;20041;-72
2022/11/27 02:56:49;;;;;;;44.58;17.70;;;;;;;4.75;75.48;102241.31;6178859;23;20026;-71
2022/11/27 02:59:17;;;;;;;50.35;19.40;;;;;;;4.69;75.41;102241.63;6177821;23;20009;-70
2022/11/27 03:01:50;;;;;;;42.60;17.65;;;;;;;4.78;75.38;102232.31;6178936;23;20362;-72
2022/11/27 03:04:22;;;;;;;44.42;18.35;;;;;;;4.67;75.27;102238.22;6178529;23;20017;-72
2022/11/27 03:06:54;;;;;;;46.17;19.60;;;;;;;4.84;75.26;102223.13;6175921;23;20032;-71
2022/11/27 03:09:30;;;;;;;51.63;18.42;;;;;;;4.79;75.39;102229.53;6178221;23;20028;-72
2022/11/27 03:11:57;;;;;;;55.95;19.40;;;;;;;4.85;74.67;102224.84;6178307;23;20025;-72
2022/11/27 03:14:24;;;;;;;49.45;18.17;;;;;;;4.68;75.24;102218.66;6178786;23;20020;-72
2022/11/27 03:17:01;;;;;;;45.30;17.70;;;;;;;4.55;75.05;102222.94;6176116;23;20068;-72
2022/11/27 03:19:55;;;;;;;48.50;17.70;;;;;;;4.72;74.89;102222.84;6177162;23;20026;-72
2022/11/27 03:22:22;;;;;;;42.53;17.20;;;;;;;4.46;75.39;102215.50;6206753;23;20091;-72
2022/11/27 03:24:49;;;;;;;43.30;17.00;;;;;;;4.31;75.00;102214.47;6169525;23;20029;-71
2022/11/27 03:27:22;;;;;;;41.90;17.27;;;;;;;4.48;74.73;102216.25;6207511;23;20020;-73
2022/11/27 03:29:56;;;;;;;28.92;15.48;;;;;;;4.67;74.13;102218.75;6208981;23;20036;-71
2022/11/27 03:32:25;;;;;;;37.20;17.88;;;;;;;4.36;75.53;102211.59;6207643;23;20013;-72
2022/11/27 03:34:52;;;;;;;35.47;17.65;;;;;;;4.28;75.17;102215.50;6208707;23;20020;-71
2022/11/27 03:37:19;;;;;;;40.35;18.40;;;;;;;4.42;75.22;102216.59;6208714;23;20020;-73
2022/11/27 03:39:46;;;;;;;40.22;17.90;;;;;;;4.60;74.66;102220.91;6207618;23;20045;-72
2022/11/27 03:42:33;;;;;;;35.15;17.48;;;;;;;4.45;74.73;102216.41;6208303;23;20010;-73
2022/11/27 03:45:21;;;;;;;46.53;19.65;;;;;;;4.32;75.06;102217.06;6207479;23;20016;-71
2022/11/27 03:48:26;;;;;;;41.22;19.58;;;;;;;4.05;75.82;102222.03;6183203;23;20017;-72
2022/11/27 03:51:00;;;;;;;45.65;19.33;;;;;;;4.15;75.14;102216.25;6205539;23;20017;-71
2022/11/27 03:53:45;;;;;;;42.30;19.58;;;;;;;4.41;74.01;102223.69;6206466;23;20081;-72
2022/11/27 03:56:26;;;;;;;46.80;18.88;;;;;;;4.17;74.77;102225.81;6177806;23;20010;-72
2022/11/27 03:59:08;;;;;;;41.58;19.73;;;;;;;4.30;74.44;102223.38;6177133;23;20005;-71
2022/11/27 04:01:35;;;;;;;44.97;20.05;;;;;;;4.51;73.83;102227.56;6178317;23;20041;-71
2022/11/27 04:04:02;;;;;;;41.92;19.40;;;;;;;4.15;74.38;102225.06;6177806;23;20025;-71
2022/11/27 04:06:28;;;;;;;39.65;17.80;;;;;;;4.11;73.95;102223.53;6161712;23;20015;-72
2022/11/27 04:08:55;;;;;;;38.47;19.00;;;;;;;4.00;73.85;102223.22;6178058;23;20036;-73
2022/11/27 04:11:21;;;;;;;41.75;18.05;;;;;;;4.00;73.45;102215.25;6178190;23;20065;-72
2022/11/27 04:13:48;;;;;;;36.50;16.92;;;;;;;3.88;73.76;102218.56;6177153;23;20022;-73
2022/11/27 04:16:14;;;;;;;34.13;16.58;;;;;;;3.96;73.21;102213.69;6177447;23;20072;-73
2022/11/27 04:18:41;;;;;;;35.47;17.05;;;;;;;4.02;73.19;102214.22;6178425;23;20016;-73
2022/11/27 04:21:07;;;;;;;33.25;17.83;;;;;;;4.20;72.53;102223.00;6179015;23;20022;-73
2022/11/27 04:23:36;;;;;;;38.90;18.77;;;;;;;4.15;72.57;102214.44;6177522;23;20026;-71
2022/11/27 04:26:04;;;;;;;42.55;18.30;;;;;;;4.19;71.69;102228.44;6178589;23;20052;-71
2022/11/27 04:28:31;;;;;;;36.50;17.92;;;;;;;4.05;72.25;102216.72;6177862;23;20085;-72
2022/11/27 04:30:57;;;;;;;38.60;19.23;;;;;;;3.74;72.71;102220.13;6180525;23;20028;-71
2022/11/27 04:33:24;;;;;;;36.17;18.02;;;;;;;3.62;73.07;102223.44;6180300;23;20006;-73
2022/11/27 04:35:51;;;;;;;48.80;17.98;;;;;;;3.49;72.78;102214.38;6179712;23;20021;-72
2022/11/27 04:38:18;;;;;;;41.90;19.85;;;;;;;3.75;72.79;102211.22;6180751;23;20017;-71
2022/11/27 04:40:45;;;;;;;45.15;18.63;;;;;;;3.62;72.76;102216.31;6178559;23;20005;-74
2022/11/27 04:43:12;;;;;;;39.15;19.20;;;;;;;3.97;71.78;102223.41;6181343;23;20005;-75
2022/11/27 04:45:40;;;;;;;35.03;18.25;;;;;;;4.17;70.82;102224.97;6180494;23;20013;-74
2022/11/27 04:48:06;;;;;;;35.70;19.05;;;;;;;4.02;70.80;102224.00;6181212;23;20016;-72
2022/11/27 04:50:32;;;;;;;50.38;19.80;;;;;;;4.01;70.97;102220.50;6180290;23;20057;-72
2022/11/27 04:52:59;;;;;;;31.30;17.80;;;;;;;3.85;71.43;102217.78;6153092;23;20009;-73
2022/11/27 04:55:25;;;;;;;39.30;18.35;;;;;;;3.55;71.72;102219.34;6179755;23;20013;-74
2022/11/27 04:57:52;;;;;;;45.05;17.80;;;;;;;3.42;72.38;102221.78;6179382;23;20020;-74
2022/11/27 05:00:19;;;;;;;39.58;18.85;;;;;;;3.73;71.27;102223.72;6180549;23;20061;-73
2022/11/27 05:02:46;;;;;;;40.22;18.48;;;;;;;3.41;72.17;102216.53;6180147;23;20036;-74
2022/11/27 05:05:12;;;;;;;40.47;17.70;;;;;;;3.23;72.70;102221.81;6180447;23;20009;-72
2022/11/27 05:07:39;;;;;;;40.13;17.55;;;;;;;3.07;73.17;102213.78;6179393;23;20057;-74
2022/11/27 05:10:06;;;;;;;43.28;19.05;;;;;;;3.62;71.87;102220.78;6179958;23;20001;-72
2022/11/27 05:12:32;;;;;;;46.72;19.48;;;;;;;3.53;71.99;102221.22;6180828;23;20012;-72
2022/11/27 05:14:59;;;;;;;42.42;18.65;;;;;;;3.62;71.52;102215.47;6180622;23;20029;-73
2022/11/27 05:17:30;;;;;;;35.92;18.45;;;;;;;3.57;72.02;102218.34;6180348;23;20021;-72
2022/11/27 05:19:56;;;;;;;40.85;19.15;;;;;;;3.60;71.38;102222.63;6180765;23;20029;-72
2022/11/27 05:22:23;;;;;;;41.03;19.02;;;;;;;3.43;72.47;102219.97;6178993;23;20021;-74
2022/11/27 05:24:49;;;;;;;45.38;20.38;;;;;;;3.25;72.55;102225.25;6178943;23;20025;-73
2022/11/27 05:27:16;;;;;;;44.55;20.55;;;;;;;3.30;72.56;102230.34;6181932;23;20029;-72
2022/11/27 05:29:42;;;;;;;45.75;18.73;;;;;;;3.44;71.95;102224.34;6180826;23;20032;-73
2022/11/27 05:32:09;;;;;;;47.88;20.45;;;;;;;3.59;71.20;102223.59;6180274;23;20022;-71
2022/11/27 05:34:35;;;;;;;38.38;19.35;;;;;;;3.58;71.42;102225.34;6179878;23;20022;-72
2022/11/27 05:37:02;;;;;;;45.60;19.27;;;;;;;3.61;71.30;102224.34;6178943;23;20065;-72
2022/11/27 05:39:28;;;;;;;46.58;20.00;;;;;;;3.55;71.44;102222.00;6178157;23;20005;-74
2022/11/27 05:41:55;;;;;;;39.72;18.13;;;;;;;2.85;73.02;102221.88;6180701;23;20009;-74
2022/11/27 05:44:21;;;;;;;45.92;19.23;;;;;;;2.66;73.84;102224.56;6179540;23;20065;-73
2022/11/27 05:46:48;;;;;;;47.10;19.35;;;;;;;2.80;73.89;102221.25;6180939;23;20021;-73
2022/11/27 05:49:15;;;;;;;48.65;18.90;;;;;;;3.10;72.79;102223.34;6177587;23;20021;-72
2022/11/27 05:51:42;;;;;;;39.25;19.30;;;;;;;2.69;74.15;102218.28;6180218;23;20030;-72
2022/11/27 05:54:16;;;;;;;45.42;19.38;;;;;;;2.86;73.17;102215.66;6185839;23;20045;-73
2022/11/27 05:56:43;;;;;;;50.08;20.17;;;;;;;2.40;74.59;102211.66;6179841;23;20108;-73
2022/11/27 05:59:09;;;;;;;41.60;19.95;;;;;;;2.12;76.04;102209.41;6180155;23;20074;-73
2022/11/27 06:01:36;;;;;;;48.25;21.63;;;;;;;2.11;76.73;102197.13;6178811;23;20064;-74
2022/11/27 06:04:03;;;;;;;57.58;21.60;;;;;;;1.75;77.48;102203.09;6179555;23;20018;-73
2022/11/27 06:06:29;;;;;;;48.13;21.00;;;;;;;1.82;77.37;102199.25;6179643;23;20021;-72
2022/11/27 06:08:56;;;;;;;51.65;21.17;;;;;;;1.59;77.83;102194.09;6180831;23;20028;-73
2022/11/27 06:11:23;;;;;;;45.28;21.45;;;;;;;2.07;77.27;102192.88;6179260;23;20029;-74
2022/11/27 06:13:50;;;;;;;54.13;22.45;;;;;;;1.99;76.30;102192.34;6181183;23;20013;-73
2022/11/27 06:16:20;;;;;;;54.65;22.60;;;;;;;2.33;75.26;102189.03;6180860;23;20017;-72
2022/11/27 06:18:51;;;;;;;69.15;22.30;;;;;;;2.28;74.77;102186.63;6179940;23;20006;-72
2022/11/27 06:21:19;;;;;;;52.28;23.13;;;;;;;1.91;76.91;102192.66;6198581;23;20008;-74
2022/11/27 06:23:46;;;;;;;55.15;22.15;;;;;;;2.02;75.27;102179.00;6198239;23;20020;-73
2022/11/27 06:26:16;;;;;;;63.88;24.10;;;;;;;1.79;76.51;102177.34;6210705;23;20036;-72
2022/11/27 06:28:43;;;;;;;56.35;24.00;;;;;;;1.97;75.55;102181.00;6210345;23;20037;-73
2022/11/27 06:31:12;;;;;;;55.88;22.55;;;;;;;1.73;75.34;102187.25;6210208;23;20053;-73
2022/11/27 06:33:44;;;;;;;53.20;22.88;;;;;;;1.84;75.65;102189.44;6208659;23;20005;-74
2022/11/27 06:36:11;;;;;;;49.63;22.80;;;;;;;1.89;75.07;102182.16;6210411;23;20110;-72
2022/11/27 06:38:38;;;;;;;51.22;22.35;;;;;;;2.14;74.01;102181.94;6209199;23;20031;-73
2022/11/27 06:41:08;;;;;;;54.03;22.15;;;;;;;1.85;74.64;102185.84;6210597;23;20012;-74
2022/11/27 06:43:35;;;;;;;48.83;20.95;;;;;;;2.10;73.82;102187.47;6208955;23;20012;-72
2022/11/27 06:46:03;;;;;;;48.97;22.05;;;;;;;2.10;73.85;102190.09;6209580;23;20045;-73
2022/11/27 06:48:29;;;;;;;49.28;21.23;;;;;;;1.87;74.12;102188.44;6209753;23;20009;-73
2022/11/27 06:51:00;;;;;;;52.95;21.85;;;;;;;1.97;74.10;102186.28;6208997;23;20086;-73
2022/11/27 06:53:28;;;;;;;69.82;23.77;;;;;;;2.03;74.05;102186.03;6210062;23;20049;-74
2022/11/27 06:55:55;;;;;;;44.72;20.48;;;;;;;1.99;74.05;102197.66;6209095;23;20016;-74
2022/11/27 06:58:22;;;;;;;49.08;20.67;;;;;;;2.05;73.99;102200.88;6210100;23;20051;-74
2022/11/27 07:01:02;;;;;;;55.58;19.58;;;;;;;1.86;73.70;102198.19;6208703;23;20012;-73
2022/11/27 07:03:29;;;;;;;50.95;20.85;;;;;;;2.10;73.31;102188.31;6209981;23;20049;-74
2022/11/27 07:06:02;;;;;;;44.83;20.90;;;;;;;1.95;73.76;102195.13;6210684;23;20061;-73
2022/11/27 07:08:29;;;;;;;44.08;20.33;;;;;;;1.80;73.99;102189.66;6208344;23;20025;-74
2022/11/27 07:11:11;;;;;;;48.75;21.05;;;;;;;1.97;74.00;102186.28;6208990;23;20005;-73
2022/11/27 07:13:38;;;;;;;52.00;20.65;;;;;;;1.66;74.52;102180.53;6209662;23;20032;-74
2022/11/27 07:16:07;;;;;;;43.53;19.88;;;;;;;1.74;74.81;102174.88;6209502;23;20016;-74
2022/11/27 07:18:38;;;;;;;53.17;20.20;;;;;;;2.00;73.57;102159.69;6209859;23;20013;-73
2022/11/27 07:21:05;;;;;;;48.22;21.27;;;;;;;1.77;74.11;102164.16;6209186;23;20060;-74
2022/11/27 07:23:32;;;;;;;45.00;20.00;;;;;;;1.80;75.23;102163.19;6208416;23;20061;-74
2022/11/27 07:26:05;;;;;;;45.05;20.63;;;;;;;1.92;73.52;102155.59;6209122;23;20021;-73
2022/11/27 07:28:31;;;;;;;54.35;21.38;;;;;;;2.25;72.70;102165.56;6209183;23;20009;-75
2022/11/27 07:30:59;;;;;;;47.63;21.00;;;;;;;1.93;73.59;102170.53;6203513;22;20012;-73
2022/11/27 07:33:26;;;;;;;50.70;22.58;;;;;;;2.30;72.96;102168.84;6205634;23;20072;-73
2022/11/27 07:36:05;;;;;;;48.72;22.60;;;;;;;2.26;72.91;102166.41;6205974;23;20065;-71
2022/11/27 07:38:31;;;;;;;44.17;19.45;;;;;;;2.08;72.71;102162.84;6176286;23;20021;-72
2022/11/27 07:41:02;;;;;;;42.78;19.35;;;;;;;1.58;74.47;102160.63;6175610;23;20096;-74
2022/11/27 07:43:30;;;;;;;46.47;20.50;;;;;;;2.23;73.04;102156.81;6176322;23;20057;-71
2022/11/27 07:45:56;;;;;;;45.05;19.58;;;;;;;1.95;73.47;102158.06;6175520;23;20403;-72
2022/11/27 07:48:23;;;;;;;52.05;20.65;;;;;;;2.02;74.19;102166.59;6177008;23;20026;-71
2022/11/27 07:50:50;;;;;;;40.10;19.40;;;;;;;2.03;73.45;102155.13;6174233;23;20051;-72
2022/11/27 07:53:16;;;;;;;40.58;18.50;;;;;;;1.90;73.56;102156.56;6206158;23;20057;-72
2022/11/27 07:55:43;;;;;;;44.88;19.73;;;;;;;1.84;73.93;102154.19;6206171;23;20035;-73
2022/11/27 07:58:09;;;;;;;45.40;19.88;;;;;;;1.82;74.24;102148.97;6206280;23;20035;-72
2022/11/27 08:00:36;;;;;;;44.47;19.50;;;;;;;2.14;72.98;102149.31;6204207;23;20024;-72
2022/11/27 08:03:02;;;;;;;51.13;19.30;;;;;;;2.04;73.31;102150.66;6176861;23;20077;-72
2022/11/27 08:05:29;;;;;;;38.65;17.48;;;;;;;2.18;72.85;102153.53;6178647;23;20036;-75
2022/11/27 08:07:58;;;;;;;40.25;18.85;;;;;;;1.91;73.11;102145.88;6180004;23;20025;-72
2022/11/27 08:10:25;;;;;;;40.45;18.25;;;;;;;2.11;73.16;102146.81;6183875;23;20033;-71
2022/11/27 08:12:52;;;;;;;37.45;18.67;;;;;;;2.24;72.56;102150.63;6178995;23;20005;-71
2022/11/27 08:15:18;;;;;;;38.65;18.10;;;;;;;2.39;72.15;102143.72;6180089;23;20049;-71
2022/11/27 08:17:45;;;;;;;34.97;17.52;;;;;;;2.20;72.48;102141.09;6179146;23;20070;-71
2022/11/27 08:20:11;;;;;;;42.22;19.45;;;;;;;2.25;72.57;102144.38;6179165;23;20041;-73
2022/11/27 08:22:38;;;;;;;34.15;16.90;;;;;;;2.02;72.82;102141.94;6178111;23;20025;-72
2022/11/27 08:25:05;;;;;;;41.55;17.92;;;;;;;1.67;74.26;102149.63;6180212;23;20029;-74
2022/11/27 08:27:32;;;;;;;40.38;18.20;;;;;;;1.93;72.97;102151.16;6179803;23;20034;-72
2022/11/27 08:29:59;;;;;;;32.88;16.50;;;;;;;2.20;72.49;102143.75;6185505;23;20029;-71
2022/11/27 08:32:26;;;;;;;40.40;17.60;;;;;;;2.23;71.79;102151.53;6180129;23;20013;-72
2022/11/27 08:34:52;;;;;;;38.83;17.65;;;;;;;2.04;72.59;102140.94;6180945;23;20069;-72
2022/11/27 08:37:18;;;;;;;38.75;16.60;;;;;;;2.30;72.18;102139.72;6180824;23;20058;-73
2022/11/27 08:39:45;;;;;;;39.05;17.63;;;;;;;1.89;73.34;102137.19;6180249;23;20065;-75
2022/11/27 08:42:11;;;;;;;29.42;16.65;;;;;;;2.09;71.80;102141.56;6180521;23;20032;-72
2022/11/27 08:44:38;;;;;;;29.63;15.50;;;;;;;2.14;72.04;102133.44;6180719;23;20073;-74
2022/11/27 08:47:05;;;;;;;38.80;16.75;;;;;;;2.21;71.50;102136.66;6179913;23;20021;-72
2022/11/27 08:49:31;;;;;;;48.88;17.92;;;;;;;1.97;71.62;102138.66;6180611;23;20002;-71
2022/11/27 08:51:58;;;;;;;38.03;17.40;;;;;;;2.19;71.75;102142.88;6180350;23;20022;-71
2022/11/27 08:54:24;;;;;;;35.47;16.20;;;;;;;2.23;71.36;102140.94;6179491;23;20017;-71
2022/11/27 08:56:51;;;;;;;34.13;16.15;;;;;;;2.26;71.22;102138.16;6181188;23;20009;-72
2022/11/27 08:59:18;;;;;;;28.75;16.25;;;;;;;1.68;73.12;102140.75;6180487;23;20096;-73
2022/11/27 09:01:45;;;;;;;35.33;15.93;;;;;;;2.09;71.92;102140.72;6181068;23;20006;-71
2022/11/27 09:04:11;;;;;;;36.90;16.48;;;;;;;1.96;72.90;102137.78;6180910;23;20007;-76
2022/11/27 09:06:40;;;;;;;49.83;21.30;;;;;;;2.27;71.90;102126.66;6180576;23;20021;-73
2022/11/27 09:09:06;;;;;;;49.00;20.20;;;;;;;2.24;71.62;102126.78;6180468;23;20001;-74
2022/11/27 09:11:34;;;;;;;43.95;19.33;;;;;;;2.53;70.84;102129.84;6180699;23;20025;-72
2022/11/27 09:14:01;;;;;;;33.20;15.48;;;;;;;2.03;72.10;102127.78;6180135;23;20010;-72
2022/11/27 09:16:29;;;;;;;32.30;16.08;;;;;;;2.17;71.91;102135.94;6180646;23;20017;-73
2022/11/27 09:18:56;;;;;;;31.05;15.60;;;;;;;2.35;71.01;102128.94;6180589;23;20013;-73
2022/11/27 09:21:31;;;;;;;30.98;15.93;;;;;;;2.09;71.73;102133.63;6172482;23;20001;-73
2022/11/27 09:23:59;;;;;;;33.42;16.85;;;;;;;2.54;70.80;102123.59;6180518;23;20035;-72
2022/11/27 09:26:28;;;;;;;33.40;15.88;;;;;;;2.50;70.61;102122.88;6180462;23;20020;-73
2022/11/27 09:28:57;;;;;;;31.48;15.25;;;;;;;2.75;70.41;102111.09;6179662;23;20028;-73
2022/11/27 09:31:24;;;;;;;31.15;15.25;;;;;;;3.13;68.88;102117.13;6179695;23;20006;-72
2022/11/27 09:33:51;;;;;;;32.00;15.30;;;;;;;3.32;68.36;102112.63;6180840;23;20005;-73
2022/11/27 09:36:20;;;;;;;32.50;14.45;;;;;;;3.53;67.18;102112.44;6181020;23;20009;-72
2022/11/27 09:38:47;;;;;;;31.33;13.65;;;;;;;4.02;65.75;102107.16;6179510;23;20021;-72
2022/11/27 09:41:50;;;;;;;34.17;14.57;;;;;;;4.27;64.46;102099.53;6179778;23;20037;-72
2022/11/27 09:44:22;;;;;;;27.25;12.57;;;;;;;4.56;63.33;102110.38;6179134;23;20040;-73
2022/11/27 09:46:50;;;;;;;25.75;11.93;;;;;;;5.10;61.97;102097.47;6180029;23;20037;-74
2022/11/27 09:49:21;;;;;;;23.10;12.02;;;;;;;4.52;64.21;102107.03;6180086;23;19997;-75
2022/11/27 09:52:16;;;;;;;22.30;11.75;;;;;;;4.67;62.39;102100.00;6179890;23;20037;-74
2022/11/27 09:54:55;;;;;;;24.63;11.65;;;;;;;5.06;61.28;102090.63;6179997;23;20062;-72
2022/11/27 09:57:28;;;;;;;26.85;11.35;;;;;;;5.42;60.48;102090.25;6180627;23;20002;-73
2022/11/27 10:00:00;;;;;;;22.63;10.82;;;;;;;5.53;59.70;102086.91;6179609;23;20013;-74
2022/11/27 10:02:30;;;;;;;20.52;9.93;;;;;;;5.45;59.84;102097.16;6179011;23;20024;-72
2022/11/27 10:04:59;;;;;;;23.45;10.98;;;;;;;5.22;60.80;102082.59;6179300;23;20060;-72
2022/11/27 10:08:06;;;;;;;23.15;10.23;;;;;;;5.51;59.72;102086.16;6180697;23;20045;-74
2022/11/27 10:11:00;;;;;;;23.75;10.07;;;;;;;5.87;58.96;102093.69;6185451;23;20021;-72
2022/11/27 10:13:41;;;;;;;26.42;10.38;;;;;;;5.83;59.14;102081.47;6179566;23;20025;-74
2022/11/27 10:16:23;;;;;;;17.30;7.95;;;;;;;5.89;58.51;102086.44;6168932;23;20017;-73
2022/11/27 10:18:52;;;;;;;;;;;;;;;6.31;58.04;102083.81;6182279;23;20052;-73
2022/11/27 10:21:31;;;;;;;20.40;9.48;;;;;;;6.86;55.92;102075.72;6179962;23;19964;-74
2022/11/27 10:24:16;;;;;;;18.33;9.35;;;;;;;6.62;55.74;102078.19;6177797;23;20005;-73
2022/11/27 10:26:46;;;;;;;19.27;9.85;;;;;;;6.85;55.90;102079.34;6171398;23;20029;-75
2022/11/27 10:29:41;;;;;;;21.23;10.38;;;;;;;7.01;55.33;102078.31;6179756;23;20016;-74
2022/11/27 10:32:18;;;;;;;24.63;11.40;;;;;;;6.55;56.25;102065.38;6183707;23;20017;-73
2022/11/27 10:35:14;;;;;;;19.73;9.95;;;;;;;7.29;54.63;102075.50;6184802;23;20017;-72
2022/11/27 10:37:46;;;;;;;22.45;10.88;;;;;;;6.77;55.08;102064.81;6178585;23;20060;-73
2022/11/27 10:40:12;;;;;;;19.80;10.10;;;;;;;6.01;57.11;102066.16;6178599;23;20069;-74
2022/11/27 10:43:03;;;;;;;20.63;10.68;;;;;;;5.31;59.41;102062.56;6179702;23;20096;-75
2022/11/27 10:45:52;;;;;;;24.60;11.00;;;;;;;5.94;58.78;102056.81;6177345;23;20025;-72
2022/11/27 10:48:19;;;;;;;18.45;10.25;;;;;;;6.16;58.31;102065.19;6177305;23;20026;-73
2022/11/27 10:50:46;;;;;;;24.52;11.00;;;;;;;6.76;56.13;102063.09;6176511;23;20017;-72
2022/11/27 10:53:26;;;;;;;21.00;11.02;;;;;;;6.80;55.48;102056.59;6177973;23;20032;-73
2022/11/27 10:56:00;;;;;;;19.92;10.10;;;;;;;7.39;54.54;102054.31;6177324;23;20010;-73
2022/11/27 10:58:35;;;;;;;20.15;10.88;;;;;;;6.79;54.97;102050.41;6176891;23;20017;-73
2022/11/27 11:01:15;;;;;;;23.10;10.50;;;;;;;7.27;54.48;102053.38;6177762;23;20045;-71
2022/11/27 11:03:41;;;;;;;19.10;10.35;;;;;;;6.88;55.71;102049.81;6183768;22;20044;-72
2022/11/27 12:03:05;;;;;;;18.05;8.55;;;;;;;8.21;52.46;102012.00;6141418;23;21041;-73
2022/11/27 12:05:55;;;;;;;20.50;9.15;;;;;;;7.95;53.25;102012.09;6180554;23;20480;-74
2022/11/27 12:08:30;;;;;;;23.10;8.40;;;;;;;7.07;55.91;102006.69;6178181;23;20039;-73
2022/11/27 12:11:07;;;;;;;22.77;9.90;;;;;;;8.22;52.10;102003.00;6179818;23;20029;-73
2022/11/27 12:13:37;;;;;;;18.98;8.18;;;;;;;8.22;52.82;102001.16;6181703;23;20358;-73
2022/11/27 12:16:22;;;;;;;18.05;9.30;;;;;;;7.27;54.98;101999.13;6180542;23;20450;-74
2022/11/27 12:19:03;;;;;;;17.17;8.88;;;;;;;6.45;57.09;101985.16;6178000;23;20051;-73
2022/11/27 12:21:45;;;;;;;21.90;9.88;;;;;;;6.27;58.09;101984.56;6181231;23;20449;-74
2022/11/27 12:24:22;;;;;;;18.00;9.23;;;;;;;5.85;59.62;101977.53;6181905;23;20021;-71
2022/11/27 12:27:11;;;;;;;19.58;9.55;;;;;;;5.53;60.00;101972.47;6181012;23;20031;-74
2022/11/27 12:30:04;;;;;;;23.70;10.10;;;;;;;5.06;61.72;101962.94;6181621;23;20450;-74
2022/11/27 12:32:49;;;;;;;25.15;8.85;;;;;;;5.91;59.61;101956.69;6181865;23;20025;-75